Time;durP1;ratioP1;P1;durP2;ratioP2;P2;SDS_P1;SDS_P2;PMS_P1;PMS_P2;Temp;Humidity;BMP_temperature;BMP_pressure;BME280_temperature;BME280_humidity;BME280_pressure;Samples;Min_cycle;Max_cycle;Signal;HPM_P1;HPM_P2
2022/01/20 00:00:31;;;;;;;12.32;2.70;;;22.20;99.90;;;;;;5019001;28;20034;-65
2022/01/20 00:03:01;;;;;;;16.30;2.47;;;22.10;99.90;;;;;;5025280;28;20040;-64
2022/01/20 00:05:59;;;;;;;13.80;2.70;;;22.00;99.90;;;;;;5019060;28;20037;-65
2022/01/20 00:27:23;;;;;;;21.40;3.35;;;21.10;99.90;;;;;;5023731;28;20037;-65
2022/01/20 00:30:16;;;;;;;17.48;2.85;;;21.20;99.90;;;;;;5030871;28;20049;-65
2022/01/20 00:35:24;;;;;;;22.50;4.32;;;21.10;99.90;;;;;;5015138;28;20060;-64
2022/01/20 00:37:52;;;;;;;23.45;4.43;;;20.50;99.90;;;;;;5018738;28;20041;-65
2022/01/20 00:40:19;;;;;;;24.75;3.85;;;20.20;99.90;;;;;;5026375;28;20111;-65
2022/01/20 00:42:46;;;;;;;23.67;3.25;;;19.90;99.90;;;;;;5026382;28;20108;-65
2022/01/20 00:45:16;;;;;;;20.80;3.42;;;19.80;99.90;;;;;;5026585;28;20021;-64
2022/01/20 00:47:43;;;;;;;21.85;3.95;;;19.70;99.90;;;;;;5017618;28;20046;-64
2022/01/20 00:50:12;;;;;;;20.85;4.90;;;19.80;99.90;;;;;;5025884;28;20026;-65
2022/01/20 00:52:39;;;;;;;14.90;3.15;;;20.00;99.90;;;;;;5019716;28;20018;-65
2022/01/20 00:55:07;;;;;;;18.45;3.75;;;20.10;99.90;;;;;;5032184;28;20393;-65
2022/01/20 00:57:35;;;;;;;19.60;3.47;;;20.10;99.90;;;;;;5031565;28;20026;-64
2022/01/20 01:00:05;;;;;;;20.40;4.28;;;20.10;99.90;;;;;;5020070;28;20026;-66
2022/01/20 01:02:35;;;;;;;23.63;3.95;;;20.20;99.90;;;;;;5021484;28;20022;-66
2022/01/20 01:05:04;;;;;;;22.42;4.15;;;20.10;99.90;;;;;;5019823;28;20033;-66
2022/01/20 01:07:49;;;;;;;19.95;4.50;;;20.10;99.90;;;;;;5019310;28;20022;-65
2022/01/20 01:10:23;;;;;;;18.60;4.07;;;20.00;99.90;;;;;;5020398;28;20065;-65
2022/01/20 01:15:24;;;;;;;21.33;3.78;;;20.00;99.90;;;;;;5021746;28;20012;-65
2022/01/20 01:21:28;;;;;;;20.10;2.78;;;20.00;99.90;;;;;;5025958;28;20452;-64
2022/01/20 01:23:27;;;;;;;18.45;2.80;;;20.10;99.90;;;;;;5031933;28;20042;-64
2022/01/20 01:25:57;;;;;;;19.52;3.28;;;20.20;99.90;;;;;;5023466;28;20036;-65
2022/01/20 01:28:29;;;;;;;17.30;4.40;;;20.40;99.90;;;;;;5019831;28;20368;-65
2022/01/20 01:31:32;;;;;;;18.38;3.05;;;20.50;99.90;;;;;;5027692;28;20038;-65
2022/01/20 01:34:12;;;;;;;18.85;3.05;;;20.60;99.90;;;;;;5016552;28;20041;-65
2022/01/20 01:37:36;;;;;;;19.50;3.33;;;20.70;99.90;;;;;;5018954;28;20072;-65
2022/01/20 01:39:31;;;;;;;16.60;3.15;;;20.80;99.90;;;;;;5017025;28;20065;-65
2022/01/20 01:41:59;;;;;;;24.83;3.65;;;21.00;99.90;;;;;;5023404;28;20379;-65
2022/01/20 01:44:30;;;;;;;21.17;3.70;;;21.30;99.90;;;;;;5014778;28;20094;-65
2022/01/20 01:46:59;;;;;;;14.88;2.70;;;21.60;99.90;;;;;;5024251;28;20038;-65
2022/01/20 01:49:26;;;;;;;13.68;2.70;;;21.80;99.90;;;;;;5023538;28;20022;-65
2022/01/20 01:51:53;;;;;;;15.65;2.58;;;22.10;99.90;;;;;;5024103;28;20087;-65
2022/01/20 01:54:21;;;;;;;20.05;3.15;;;22.40;99.90;;;;;;5025000;28;20509;-65
2022/01/20 01:56:49;;;;;;;10.32;2.45;;;22.60;99.90;;;;;;5020143;28;20121;-65
2022/01/20 01:59:18;;;;;;;15.15;2.58;;;22.60;99.90;;;;;;5017652;28;20064;-65
2022/01/20 02:01:46;;;;;;;13.75;2.58;;;22.50;99.90;;;;;;5013680;28;20026;-65
2022/01/20 02:04:20;;;;;;;17.10;2.97;;;22.60;99.90;;;;;;5015624;28;20108;-65
2022/01/20 02:20:21;;;;;;;18.55;2.63;;;23.00;99.90;;;;;;5014743;28;20072;-65
2022/01/20 02:22:50;;;;;;;19.70;2.50;;;23.10;99.90;;;;;;5015668;28;20025;-66
2022/01/20 02:25:31;;;;;;;13.55;2.35;;;23.40;99.90;;;;;;5022983;28;20047;-65
2022/01/20 02:28:01;;;;;;;16.23;3.15;;;23.80;99.90;;;;;;5014408;28;20100;-65
2022/01/20 02:30:30;;;;;;;17.52;3.08;;;23.70;99.90;;;;;;5022901;28;20045;-66
2022/01/20 02:32:59;;;;;;;15.57;3.92;;;24.10;99.90;;;;;;5019016;28;20021;-65
2022/01/20 02:35:29;;;;;;;12.88;2.63;;;23.70;99.90;;;;;;5030264;28;20509;-65
2022/01/20 02:38:11;;;;;;;16.17;3.63;;;23.80;99.90;;;;;;5023082;28;20026;-65
2022/01/20 02:45:57;;;;;;;11.88;1.58;;;23.00;99.90;;;;;;5021422;28;20064;-65
2022/01/20 02:48:25;;;;;;;15.35;2.20;;;22.70;99.90;;;;;;5021733;28;20045;-65
2022/01/20 02:50:52;;;;;;;15.50;2.53;;;22.50;99.90;;;;;;5016883;28;20018;-65
2022/01/20 02:53:19;;;;;;;15.18;2.50;;;22.30;99.90;;;;;;5023049;28;20025;-66
2022/01/20 02:55:46;;;;;;;15.85;2.70;;;22.30;99.90;;;;;;5025104;28;20121;-65
2022/01/20 02:58:14;;;;;;;16.60;2.92;;;22.50;99.90;;;;;;5031051;28;20022;-65
2022/01/20 03:00:41;;;;;;;14.00;2.78;;;22.50;99.90;;;;;;5025116;28;20121;-65
2022/01/20 03:03:08;;;;;;;18.63;2.28;;;22.30;99.90;;;;;;5012378;28;20060;-65
2022/01/20 03:05:36;;;;;;;19.13;3.28;;;22.20;99.90;;;;;;5016398;28;20574;-65
2022/01/20 03:08:04;;;;;;;28.80;3.53;;;22.10;99.90;;;;;;5019835;28;20084;-64
2022/01/20 03:10:31;;;;;;;20.83;2.60;;;22.20;99.90;;;;;;5016950;28;20044;-64
2022/01/20 03:12:59;;;;;;;11.65;2.15;;;22.30;99.90;;;;;;5017155;28;20060;-67
2022/01/20 03:15:26;;;;;;;10.57;2.15;;;22.40;99.90;;;;;;5022208;28;20386;-66
2022/01/20 03:17:53;;;;;;;17.70;2.88;;;22.20;99.90;;;;;;5024686;28;20036;-66
2022/01/20 03:20:21;;;;;;;11.63;2.95;;;22.40;99.90;;;;;;5020873;28;20336;-65
2022/01/20 03:22:48;;;;;;;13.77;2.67;;;22.50;99.90;;;;;;5027705;28;20064;-66
2022/01/20 03:25:15;;;;;;;15.48;2.67;;;22.70;99.90;;;;;;5021224;28;20184;-66
2022/01/20 03:27:42;;;;;;;12.15;2.20;;;22.70;99.90;;;;;;5022313;28;20037;-65
2022/01/20 03:30:11;;;;;;;15.90;2.42;;;22.70;99.90;;;;;;5019047;28;20018;-65
2022/01/20 03:32:39;;;;;;;13.82;2.58;;;22.90;99.90;;;;;;5020264;28;20034;-65
2022/01/20 03:35:07;;;;;;;17.58;2.97;;;22.90;99.90;;;;;;5023902;28;20029;-65
2022/01/20 03:37:36;;;;;;;16.20;2.85;;;23.10;99.90;;;;;;5023498;28;20022;-66
2022/01/20 03:40:05;;;;;;;14.02;2.50;;;23.30;99.90;;;;;;5016126;28;20018;-66
2022/01/20 03:42:33;;;;;;;11.55;2.17;;;23.20;99.90;;;;;;5023315;28;20056;-65
2022/01/20 03:45:00;;;;;;;14.55;3.05;;;23.10;99.90;;;;;;5028558;28;20040;-67
2022/01/20 03:47:27;;;;;;;20.38;2.95;;;23.00;99.90;;;;;;5030309;28;20042;-66
2022/01/20 03:50:08;;;;;;;23.65;2.90;;;22.90;99.90;;;;;;5023420;28;20033;-65
2022/01/20 03:52:36;;;;;;;10.65;2.65;;;22.80;99.90;;;;;;5012294;28;20065;-65
2022/01/20 03:55:04;;;;;;;18.92;3.55;;;22.80;99.90;;;;;;5022221;28;20045;-65
2022/01/20 03:57:31;;;;;;;12.68;2.40;;;22.80;99.90;;;;;;5030124;28;20488;-65
2022/01/20 03:59:59;;;;;;;15.13;2.78;;;22.90;99.90;;;;;;5021813;28;20402;-65
2022/01/20 04:02:26;;;;;;;18.17;2.33;;;23.00;99.90;;;;;;5011967;28;20033;-65
2022/01/20 04:04:53;;;;;;;18.45;3.17;;;22.90;99.90;;;;;;5013204;28;20381;-65
2022/01/20 04:07:20;;;;;;;19.63;3.10;;;22.80;99.90;;;;;;5013612;28;20037;-65
2022/01/20 04:09:48;;;;;;;16.52;3.00;;;22.90;99.90;;;;;;5022685;28;20045;-66
2022/01/20 04:12:15;;;;;;;15.77;2.88;;;23.10;99.90;;;;;;5025236;28;20386;-65
2022/01/20 04:14:47;;;;;;;15.88;1.77;;;23.20;99.90;;;;;;5023609;28;20545;-65
2022/01/20 04:17:20;;;;;;;12.27;2.45;;;23.00;99.90;;;;;;5033657;28;20512;-69
2022/01/20 04:19:48;;;;;;;16.13;2.70;;;22.90;99.90;;;;;;5028918;28;20029;-65
2022/01/20 04:22:15;;;;;;;16.10;2.95;;;23.10;99.90;;;;;;5034339;28;20119;-66
2022/01/20 04:24:42;;;;;;;13.38;2.20;;;23.20;99.90;;;;;;5034519;28;20401;-65
2022/01/20 04:27:09;;;;;;;12.60;2.75;;;23.20;99.90;;;;;;5030510;28;20469;-65
2022/01/20 04:29:37;;;;;;;12.23;2.35;;;23.10;99.90;;;;;;5023645;28;20021;-66
2022/01/20 04:32:04;;;;;;;13.32;2.53;;;23.00;99.90;;;;;;5027048;28;20083;-65
2022/01/20 04:34:31;;;;;;;17.13;1.95;;;22.80;99.90;;;;;;5026168;28;20063;-66
2022/01/20 04:37:02;;;;;;;12.27;1.85;;;22.80;99.90;;;;;;5018380;28;20087;-65
2022/01/20 04:39:32;;;;;;;11.68;1.92;;;22.50;99.90;;;;;;5027602;28;20038;-66
2022/01/20 04:41:59;;;;;;;9.57;1.70;;;22.50;99.90;;;;;;5018068;28;20581;-66
2022/01/20 04:45:12;;;;;;;14.52;2.38;;;22.50;99.90;;;;;;5018216;28;20032;-66
2022/01/20 04:47:38;;;;;;;8.77;1.63;;;22.60;99.90;;;;;;5029318;28;20402;-66
2022/01/20 04:58:21;;;;;;;15.32;2.10;;;22.60;99.90;;;;;;5033639;28;20041;-66
2022/01/20 05:00:49;;;;;;;16.88;2.45;;;22.60;99.90;;;;;;5033234;28;20029;-66
2022/01/20 05:03:16;;;;;;;22.30;3.25;;;22.70;99.90;;;;;;5041652;28;20419;-66
2022/01/20 05:05:45;;;;;;;17.38;2.72;;;22.60;99.90;;;;;;5029538;28;20048;-66
2022/01/20 05:08:17;;;;;;;17.13;2.75;;;22.50;99.90;;;;;;5031154;28;20030;-66
2022/01/20 05:10:44;;;;;;;19.73;2.92;;;22.30;99.90;;;;;;5018890;28;20045;-66
2022/01/20 05:13:22;;;;;;;14.13;3.00;;;22.20;99.90;;;;;;5021578;28;20030;-65
2022/01/20 05:15:49;;;;;;;18.88;3.55;;;22.20;99.90;;;;;;5023005;28;20044;-65
2022/01/20 05:18:17;;;;;;;19.60;4.88;;;22.20;99.90;;;;;;5029503;28;20025;-66
2022/01/20 05:20:44;;;;;;;21.08;4.15;;;22.00;99.90;;;;;;5024305;28;20029;-66
2022/01/20 05:23:11;;;;;;;15.52;3.15;;;22.00;99.90;;;;;;5031069;28;20147;-65
2022/01/20 05:25:39;;;;;;;13.07;2.78;;;21.90;99.90;;;;;;5018430;28;20018;-65
2022/01/20 05:28:06;;;;;;;21.67;3.45;;;21.80;99.90;;;;;;5024190;28;20466;-65
2022/01/20 05:30:34;;;;;;;13.13;2.75;;;21.70;99.90;;;;;;5028407;28;20036;-65
2022/01/20 05:33:02;;;;;;;18.65;3.53;;;21.80;99.90;;;;;;5030952;28;20022;-66
2022/01/20 05:35:30;;;;;;;16.60;3.10;;;22.00;99.90;;;;;;5022716;28;20034;-65
2022/01/20 05:37:58;;;;;;;20.20;3.80;;;22.10;99.90;;;;;;5015965;28;20084;-65
2022/01/20 05:40:26;;;;;;;20.20;4.15;;;22.10;99.90;;;;;;5015556;28;20028;-65
2022/01/20 05:42:54;;;;;;;21.23;3.47;;;22.10;99.90;;;;;;5025809;28;20037;-66
2022/01/20 05:45:23;;;;;;;15.90;3.28;;;21.90;99.90;;;;;;5014797;28;20084;-65
2022/01/20 05:47:59;;;;;;;21.70;4.15;;;21.80;99.90;;;;;;5025231;28;20046;-65
2022/01/20 05:50:26;;;;;;;14.93;2.97;;;22.00;99.90;;;;;;5028075;28;20017;-65
2022/01/20 05:52:54;;;;;;;15.70;3.08;;;22.00;99.90;;;;;;5026659;28;20025;-65
2022/01/20 05:55:22;;;;;;;20.13;3.83;;;22.00;99.90;;;;;;5029617;28;20478;-65
2022/01/20 05:57:50;;;;;;;16.08;2.63;;;22.00;99.90;;;;;;5028178;28;20099;-65
2022/01/20 06:00:24;;;;;;;22.67;4.75;;;22.00;99.90;;;;;;5019569;28;20025;-65
2022/01/20 06:05:38;;;;;;;18.85;4.10;;;22.00;99.90;;;;;;5015619;28;20049;-65
2022/01/20 06:08:07;;;;;;;18.00;3.30;;;22.30;99.90;;;;;;5019604;28;20496;-65
2022/01/20 06:10:34;;;;;;;21.05;4.32;;;22.50;99.90;;;;;;5029986;28;20470;-65
2022/01/20 06:13:02;;;;;;;14.70;2.45;;;22.40;99.90;;;;;;5026307;28;20053;-64
2022/01/20 06:15:30;;;;;;;16.35;3.28;;;22.40;99.90;;;;;;5029003;28;20128;-65
2022/01/20 06:17:57;;;;;;;15.30;3.17;;;22.40;99.90;;;;;;5023329;28;20038;-65
2022/01/20 06:20:25;;;;;;;14.00;3.42;;;22.40;99.90;;;;;;5030708;28;20036;-65
2022/01/20 06:22:52;;;;;;;16.55;3.47;;;22.40;99.90;;;;;;5018393;28;20033;-65
2022/01/20 06:25:20;;;;;;;17.17;3.08;;;22.30;99.90;;;;;;5023747;28;20041;-65
2022/01/20 06:27:47;;;;;;;20.02;4.55;;;22.40;99.90;;;;;;5024664;28;20044;-65
2022/01/20 06:30:14;;;;;;;16.95;3.42;;;22.80;99.90;;;;;;5028147;28;20022;-66
2022/01/20 06:32:42;;;;;;;19.10;4.07;;;23.00;99.90;;;;;;5013537;28;20032;-65
2022/01/20 06:35:11;;;;;;;24.85;3.42;;;22.60;99.90;;;;;;5023587;28;20040;-65
2022/01/20 06:37:38;;;;;;;14.50;2.35;;;22.30;99.90;;;;;;5020273;28;20543;-65
2022/01/20 06:40:07;;;;;;;19.83;3.60;;;22.70;99.90;;;;;;5015890;28;20026;-65
2022/01/20 06:42:35;;;;;;;20.98;3.45;;;22.70;99.90;;;;;;5030289;28;20232;-65
2022/01/20 06:45:05;;;;;;;17.52;3.35;;;23.00;99.90;;;;;;5025946;28;20041;-65
2022/01/20 06:47:32;;;;;;;16.23;3.00;;;23.30;99.90;;;;;;5019272;28;20544;-66
2022/01/20 06:50:00;;;;;;;18.63;2.88;;;22.40;99.90;;;;;;5015224;28;20375;-66
2022/01/20 06:52:29;;;;;;;17.75;3.17;;;22.00;99.90;;;;;;5024186;28;20604;-66
2022/01/20 06:54:57;;;;;;;16.90;2.95;;;22.30;99.90;;;;;;5024116;28;20066;-65
2022/01/20 06:57:25;;;;;;;18.92;2.35;;;22.60;99.90;;;;;;5020904;28;20095;-65
2022/01/20 06:59:52;;;;;;;20.73;2.92;;;22.50;99.90;;;;;;5027755;28;20542;-65
2022/01/20 07:02:19;;;;;;;13.18;2.25;;;22.20;99.90;;;;;;5016227;28;20061;-65
2022/01/20 07:04:47;;;;;;;15.20;3.13;;;22.10;99.90;;;;;;5020180;28;20037;-65
2022/01/20 07:07:15;;;;;;;17.13;2.78;;;22.20;99.90;;;;;;5020495;28;20441;-65
2022/01/20 07:09:42;;;;;;;20.33;3.53;;;22.20;99.90;;;;;;5018119;28;20029;-65
2022/01/20 07:12:10;;;;;;;20.05;3.47;;;22.30;99.90;;;;;;5022257;28;20452;-63
2022/01/20 07:14:39;;;;;;;20.08;3.58;;;22.30;99.90;;;;;;5014653;28;20120;-63
2022/01/20 07:17:07;;;;;;;17.55;2.90;;;22.40;99.90;;;;;;5023189;28;20026;-63
2022/01/20 07:19:34;;;;;;;12.10;3.20;;;22.40;99.90;;;;;;5020688;28;20109;-63
2022/01/20 07:22:02;;;;;;;17.63;3.65;;;22.40;99.90;;;;;;5029049;28;20028;-63
2022/01/20 07:24:30;;;;;;;14.35;2.42;;;22.40;99.90;;;;;;5024363;28;20159;-63
2022/01/20 07:26:58;;;;;;;11.60;2.60;;;22.30;99.90;;;;;;5018178;28;20013;-64
2022/01/20 07:29:27;;;;;;;14.15;3.05;;;22.50;99.90;;;;;;5018743;28;20022;-63
2022/01/20 07:31:54;;;;;;;14.25;2.13;;;22.60;99.90;;;;;;5019793;28;20045;-65
2022/01/20 07:34:22;;;;;;;13.13;2.05;;;22.50;99.90;;;;;;5026465;28;20024;-63
2022/01/20 07:36:49;;;;;;;11.30;2.13;;;22.40;99.90;;;;;;5028559;28;20456;-64
2022/01/20 07:39:17;;;;;;;13.75;1.95;;;22.20;99.90;;;;;;5018472;28;20096;-64
2022/01/20 07:41:44;;;;;;;14.27;2.55;;;22.10;99.90;;;;;;5019345;28;20054;-64
2022/01/20 07:44:12;;;;;;;13.35;2.53;;;22.60;99.90;;;;;;5024674;28;20017;-64
2022/01/20 07:46:39;;;;;;;18.65;2.63;;;23.20;99.90;;;;;;5025887;28;20063;-64
2022/01/20 07:49:06;;;;;;;15.45;2.35;;;22.80;99.90;;;;;;5023196;28;20036;-64
2022/01/20 07:51:33;;;;;;;16.55;2.92;;;22.30;99.90;;;;;;5026788;28;20030;-64
2022/01/20 07:54:01;;;;;;;13.45;2.92;;;22.00;99.90;;;;;;5031211;28;20029;-64
2022/01/20 07:56:28;;;;;;;15.85;3.13;;;22.00;99.90;;;;;;5027207;28;20084;-64
2022/01/20 07:58:55;;;;;;;17.55;2.08;;;21.90;99.90;;;;;;5025051;28;20037;-64
2022/01/20 08:01:27;;;;;;;16.98;3.70;;;21.90;99.90;;;;;;5020286;28;20018;-64
2022/01/20 08:03:55;;;;;;;21.40;2.83;;;21.70;99.90;;;;;;5035583;28;20465;-65
2022/01/20 08:06:22;;;;;;;12.23;2.08;;;21.60;99.90;;;;;;5045438;28;20029;-64
2022/01/20 08:08:51;;;;;;;18.85;3.92;;;21.50;99.90;;;;;;5038185;28;20390;-64
2022/01/20 08:11:20;;;;;;;15.10;3.17;;;21.50;99.90;;;;;;5018445;28;20045;-64
2022/01/20 08:13:47;;;;;;;18.17;3.75;;;21.50;99.90;;;;;;5024178;28;20034;-64
2022/01/20 08:16:15;;;;;;;14.00;2.33;;;21.50;99.90;;;;;;5042108;28;20091;-64
2022/01/20 08:18:42;;;;;;;18.20;3.03;;;21.50;99.90;;;;;;5039179;28;20033;-64
2022/01/20 08:21:09;;;;;;;17.55;3.50;;;21.50;99.90;;;;;;5028923;28;20375;-64
2022/01/20 08:23:37;;;;;;;14.75;2.42;;;21.50;99.90;;;;;;5028417;28;20030;-64
2022/01/20 08:26:04;;;;;;;17.20;2.88;;;21.40;99.90;;;;;;5027520;28;20034;-64
2022/01/20 08:28:31;;;;;;;16.42;3.33;;;21.40;99.90;;;;;;5030239;28;20145;-64
2022/01/20 08:30:59;;;;;;;23.90;3.75;;;21.40;99.90;;;;;;5026160;28;20545;-64
2022/01/20 08:33:26;;;;;;;19.17;3.28;;;21.50;99.90;;;;;;5048115;28;20492;-64
2022/01/20 08:35:53;;;;;;;27.88;4.20;;;21.40;99.90;;;;;;5025021;28;20029;-65
2022/01/20 08:38:21;;;;;;;16.40;2.83;;;21.50;99.90;;;;;;5044726;28;20386;-64
2022/01/20 08:40:49;;;;;;;15.05;2.28;;;21.50;99.90;;;;;;5026912;28;20053;-64
2022/01/20 08:43:17;;;;;;;17.95;3.17;;;21.40;99.90;;;;;;5029045;28;20049;-65
2022/01/20 08:45:46;;;;;;;22.50;3.28;;;21.30;99.90;;;;;;5037045;28;20025;-65
2022/01/20 08:48:14;;;;;;;13.77;2.30;;;21.20;99.90;;;;;;5029824;28;20049;-65
2022/01/20 08:50:44;;;;;;;13.68;3.22;;;21.20;99.90;;;;;;5033851;28;20029;-64
2022/01/20 08:53:12;;;;;;;20.20;3.08;;;21.10;99.90;;;;;;5038735;28;20078;-66
2022/01/20 08:55:40;;;;;;;22.60;3.47;;;21.00;99.90;;;;;;5037105;28;20492;-64
2022/01/20 08:58:07;;;;;;;21.13;4.10;;;21.10;99.90;;;;;;5035277;28;20030;-65
2022/01/20 09:00:36;;;;;;;20.25;4.43;;;21.00;99.90;;;;;;5019115;28;20048;-66
2022/01/20 09:03:04;;;;;;;24.00;3.70;;;21.00;99.90;;;;;;5014838;28;20050;-64
2022/01/20 09:05:32;;;;;;;18.98;4.07;;;21.00;99.90;;;;;;5022943;28;20113;-65
2022/01/20 09:07:59;;;;;;;22.05;4.20;;;20.90;99.90;;;;;;5043278;28;20036;-65
2022/01/20 09:10:28;;;;;;;17.77;2.28;;;20.90;99.90;;;;;;5032435;28;20068;-65
2022/01/20 09:15:41;;;;;;;21.63;4.10;;;20.80;99.90;;;;;;5030748;28;20040;-63
2022/01/20 09:18:10;;;;;;;18.90;3.20;;;20.80;99.90;;;;;;5020109;28;20026;-62
2022/01/20 09:20:39;;;;;;;24.08;4.45;;;20.80;99.90;;;;;;5026627;28;20030;-62
2022/01/20 09:23:08;;;;;;;21.13;3.80;;;20.80;99.90;;;;;;5033703;28;20413;-63
2022/01/20 09:25:36;;;;;;;18.20;3.38;;;20.80;99.90;;;;;;5038722;28;20025;-63
2022/01/20 09:28:04;;;;;;;16.48;3.58;;;20.80;99.90;;;;;;5038790;28;20059;-63
2022/01/20 09:30:31;;;;;;;22.00;4.93;;;20.80;99.90;;;;;;5024338;28;20113;-63
2022/01/20 09:33:13;;;;;;;20.58;4.60;;;20.80;99.90;;;;;;5026163;28;20041;-65
2022/01/20 09:35:43;;;;;;;17.23;3.70;;;20.70;99.90;;;;;;5038715;28;20553;-66
2022/01/20 09:38:12;;;;;;;21.05;4.22;;;20.70;99.90;;;;;;5020394;28;20091;-64
2022/01/20 09:40:40;;;;;;;20.70;4.85;;;20.60;99.90;;;;;;5021791;28;20025;-65
2022/01/20 09:43:11;;;;;;;22.60;3.97;;;20.60;99.90;;;;;;5023471;28;20028;-65
2022/01/20 09:45:38;;;;;;;23.52;4.90;;;20.70;99.90;;;;;;5023437;28;20103;-65
2022/01/20 09:48:06;;;;;;;23.63;4.38;;;20.60;99.90;;;;;;5023034;28;20387;-65
2022/01/20 09:50:34;;;;;;;25.48;4.35;;;20.60;99.90;;;;;;5031530;28;20021;-64
2022/01/20 09:53:01;;;;;;;24.15;4.45;;;20.60;99.90;;;;;;5028203;28;20087;-64
2022/01/20 09:55:32;;;;;;;19.23;3.10;;;20.60;99.90;;;;;;5022315;28;20022;-63
2022/01/20 09:57:59;;;;;;;17.23;3.83;;;20.60;99.90;;;;;;5030762;28;20423;-62
2022/01/20 10:00:27;;;;;;;28.30;4.00;;;20.70;99.90;;;;;;5014412;28;20033;-63
2022/01/20 10:02:58;;;;;;;19.08;4.20;;;20.70;99.90;;;;;;5019511;28;20475;-62
2022/01/20 10:05:35;;;;;;;25.00;4.43;;;20.70;99.90;;;;;;5022988;28;20048;-65
2022/01/20 10:08:07;;;;;;;24.05;3.67;;;20.60;99.90;;;;;;5017728;28;20041;-66
2022/01/20 10:11:09;;;;;;;19.95;3.47;;;20.70;99.90;;;;;;5021252;28;20109;-65
2022/01/20 10:13:42;;;;;;;20.83;3.15;;;20.60;99.90;;;;;;5023582;28;20029;-64
2022/01/20 10:16:16;;;;;;;24.03;4.13;;;20.60;99.90;;;;;;5028420;28;20052;-65
2022/01/20 10:18:48;;;;;;;25.30;3.85;;;20.70;99.90;;;;;;5045935;28;20033;-63
2022/01/20 10:21:17;;;;;;;24.35;3.58;;;20.70;99.90;;;;;;5013195;28;20133;-63
2022/01/20 10:23:49;;;;;;;25.85;4.78;;;20.60;99.90;;;;;;5031152;28;20143;-64
2022/01/20 10:26:23;;;;;;;19.85;4.22;;;20.60;99.90;;;;;;5017470;28;20049;-62
2022/01/20 10:28:55;;;;;;;21.10;3.85;;;20.60;99.90;;;;;;5027454;28;20022;-64
2022/01/20 10:31:36;;;;;;;19.67;3.13;;;20.60;99.90;;;;;;5020697;28;20044;-64
2022/01/20 10:34:28;;;;;;;23.05;3.00;;;20.60;99.90;;;;;;5025008;28;20398;-65
2022/01/20 10:36:59;;;;;;;20.33;3.58;;;20.50;99.90;;;;;;5015294;28;20079;-63
2022/01/20 10:39:37;;;;;;;18.73;4.18;;;20.50;99.90;;;;;;5023195;28;20475;-65
2022/01/20 10:42:10;;;;;;;19.27;3.45;;;20.40;99.90;;;;;;5021947;28;20033;-65
2022/01/20 10:44:48;;;;;;;25.23;4.13;;;20.40;99.90;;;;;;5026407;28;20021;-65
2022/01/20 10:47:21;;;;;;;18.88;3.65;;;20.50;99.90;;;;;;5031289;28;20049;-64
2022/01/20 10:49:49;;;;;;;22.23;3.85;;;20.40;99.90;;;;;;5024384;28;20078;-65
2022/01/20 10:52:21;;;;;;;28.45;4.03;;;20.30;99.90;;;;;;5031998;28;20111;-64
2022/01/20 10:54:54;;;;;;;19.08;3.92;;;20.40;99.90;;;;;;5030918;28;20033;-63
2022/01/20 10:57:35;;;;;;;24.60;3.70;;;20.40;99.90;;;;;;5020871;28;20498;-64
2022/01/20 11:00:11;;;;;;;22.92;3.65;;;20.40;99.90;;;;;;5015257;28;20018;-64
2022/01/20 11:02:39;;;;;;;27.30;5.25;;;20.40;99.90;;;;;;5017161;28;20475;-65
2022/01/20 11:05:07;;;;;;;19.17;4.72;;;20.30;99.90;;;;;;5019550;28;20601;-66
2022/01/20 11:07:37;;;;;;;22.35;3.17;;;20.20;99.90;;;;;;5019569;28;20026;-65
2022/01/20 11:10:09;;;;;;;19.98;2.95;;;20.20;99.90;;;;;;5028088;28;20446;-66
2022/01/20 11:12:37;;;;;;;21.20;3.63;;;20.10;99.90;;;;;;5017653;28;20026;-65
2022/01/20 11:15:08;;;;;;;20.77;3.78;;;20.20;99.90;;;;;;5013365;28;20030;-64
2022/01/20 11:17:40;;;;;;;23.95;4.18;;;20.10;99.90;;;;;;5017604;28;20029;-66
2022/01/20 11:20:18;;;;;;;21.67;3.55;;;20.10;99.90;;;;;;5020764;28;20018;-67
2022/01/20 11:23:00;;;;;;;27.75;4.82;;;20.20;99.90;;;;;;5016675;28;20108;-66
2022/01/20 11:25:37;;;;;;;18.13;2.85;;;20.20;99.90;;;;;;5019969;28;20083;-66
2022/01/20 11:28:19;;;;;;;22.23;3.75;;;20.20;99.90;;;;;;5026507;28;20064;-66
2022/01/20 11:31:06;;;;;;;18.58;3.78;;;20.10;99.90;;;;;;5018905;28;20022;-67
2022/01/20 11:33:41;;;;;;;17.92;3.70;;;20.20;99.90;;;;;;5021241;28;20533;-66
2022/01/20 11:36:29;;;;;;;27.88;4.57;;;20.10;99.90;;;;;;5031006;28;20044;-63
2022/01/20 11:39:06;;;;;;;20.73;3.40;;;19.70;99.90;;;;;;5029891;28;20073;-64
2022/01/20 11:41:39;;;;;;;21.27;3.50;;;19.50;99.90;;;;;;5017010;28;20022;-64
2022/01/20 11:44:21;;;;;;;19.13;4.00;;;19.40;99.90;;;;;;5023342;28;20555;-64
2022/01/20 11:46:52;;;;;;;26.40;4.28;;;19.20;99.90;;;;;;5024397;28;20096;-64
2022/01/20 11:49:21;;;;;;;21.17;4.50;;;19.20;99.90;;;;;;5022301;28;20104;-64
2022/01/20 11:52:00;;;;;;;28.80;3.78;;;19.20;99.90;;;;;;5019516;28;20077;-64
2022/01/20 11:54:35;;;;;;;19.35;3.20;;;19.20;99.90;;;;;;5020637;28;20028;-64
2022/01/20 11:57:31;;;;;;;14.10;2.42;;;19.20;99.90;;;;;;5023461;28;20092;-66
2022/01/20 12:00:02;;;;;;;24.90;4.75;;;19.30;99.90;;;;;;5024858;28;20032;-64
2022/01/20 12:02:29;;;;;;;23.05;4.57;;;19.30;99.90;;;;;;5017966;28;20113;-64
2022/01/20 12:04:57;;;;;;;25.23;4.65;;;19.40;99.90;;;;;;5019164;28;20025;-64
2022/01/20 12:07:30;;;;;;;20.15;3.08;;;19.40;99.90;;;;;;5016127;28;20025;-64
2022/01/20 12:10:09;;;;;;;24.57;3.33;;;19.40;99.90;;;;;;5018778;28;20026;-64
2022/01/20 12:12:39;;;;;;;20.38;5.45;;;19.40;99.90;;;;;;5022583;28;20286;-64
2022/01/20 12:15:15;;;;;;;21.20;3.60;;;19.40;99.90;;;;;;5028806;28;20031;-64
2022/01/20 12:17:54;;;;;;;24.45;3.17;;;19.40;99.90;;;;;;5024623;28;20045;-64
2022/01/20 12:20:23;;;;;;;21.52;3.30;;;19.40;99.90;;;;;;5013485;28;20033;-64
2022/01/20 12:22:52;;;;;;;16.83;3.50;;;19.50;99.90;;;;;;5031523;28;20036;-64
2022/01/20 12:25:23;;;;;;;21.77;3.92;;;19.50;99.90;;;;;;5030616;28;20097;-64
2022/01/20 12:27:50;;;;;;;26.80;4.40;;;19.50;99.90;;;;;;5027925;28;20037;-64
2022/01/20 12:30:20;;;;;;;21.08;4.38;;;19.60;99.90;;;;;;5032404;28;20029;-64
2022/01/20 12:33:06;;;;;;;24.30;3.97;;;19.60;99.90;;;;;;5017892;28;20055;-64
2022/01/20 12:35:51;;;;;;;22.10;3.53;;;19.70;99.90;;;;;;5028624;28;20431;-64
2022/01/20 12:38:26;;;;;;;19.83;3.65;;;19.70;99.90;;;;;;5021536;28;20525;-64
2022/01/20 12:41:17;;;;;;;28.23;5.30;;;19.80;99.90;;;;;;5023141;28;20022;-64
2022/01/20 12:43:45;;;;;;;24.45;2.92;;;19.80;99.90;;;;;;5015450;28;20033;-64
2022/01/20 12:46:16;;;;;;;20.23;3.85;;;19.90;99.90;;;;;;5026280;28;20494;-64
2022/01/20 12:49:06;;;;;;;21.63;3.28;;;19.90;99.90;;;;;;5018335;28;20391;-64
2022/01/20 12:51:35;;;;;;;18.98;2.53;;;20.10;99.90;;;;;;5025614;28;20031;-64
2022/01/20 12:54:05;;;;;;;20.00;3.38;;;20.10;99.90;;;;;;5027341;28;20037;-64
2022/01/20 12:56:36;;;;;;;18.50;2.67;;;20.10;99.90;;;;;;5016312;28;20036;-64
2022/01/20 12:59:05;;;;;;;19.55;3.03;;;20.10;99.90;;;;;;5025189;28;20029;-65
2022/01/20 13:01:46;;;;;;;15.80;2.70;;;20.10;99.90;;;;;;5024587;28;20022;-64
2022/01/20 13:04:17;;;;;;;21.45;3.70;;;20.10;99.90;;;;;;5018092;28;20356;-64
2022/01/20 13:06:57;;;;;;;18.90;3.85;;;20.10;99.90;;;;;;5022945;28;20111;-65
2022/01/20 13:09:36;;;;;;;21.88;4.45;;;20.10;99.90;;;;;;5023474;28;20116;-64
2022/01/20 13:12:04;;;;;;;19.75;3.00;;;20.10;99.90;;;;;;5021952;28;20018;-64
2022/01/20 13:14:37;;;;;;;21.20;3.78;;;20.20;99.90;;;;;;5024718;28;20030;-65
2022/01/20 13:17:06;;;;;;;22.50;3.60;;;20.10;99.90;;;;;;5025558;28;20057;-64
2022/01/20 13:19:45;;;;;;;27.15;5.30;;;20.10;99.90;;;;;;5031057;28;20474;-64
2022/01/20 13:23:54;;;;;;;28.02;5.15;;;20.00;99.90;;;;;;5026235;28;20038;-64
2022/01/20 13:25:39;;;;;;;21.90;3.15;;;20.00;99.90;;;;;;5024574;28;20026;-65
2022/01/20 13:28:09;;;;;;;24.13;4.20;;;20.00;99.90;;;;;;5032978;28;20041;-64
2022/01/20 13:30:48;;;;;;;23.15;4.63;;;19.90;99.90;;;;;;5032981;28;20029;-64
2022/01/20 13:33:24;;;;;;;22.30;4.13;;;19.90;99.90;;;;;;5021966;28;20482;-64
2022/01/20 13:36:01;;;;;;;26.60;4.97;;;19.90;99.90;;;;;;5023850;28;20037;-64
2022/01/20 13:38:34;;;;;;;21.92;3.58;;;19.90;99.90;;;;;;5026959;28;20418;-65
2022/01/20 13:41:08;;;;;;;18.98;4.22;;;19.80;99.90;;;;;;5024406;28;20093;-63
2022/01/20 13:46:39;;;;;;;17.10;3.83;;;19.80;99.90;;;;;;5039906;28;20136;-65
2022/01/20 13:49:21;;;;;;;23.45;4.47;;;19.80;99.90;;;;;;5028202;28;20046;-65
2022/01/20 13:52:06;;;;;;;16.85;3.28;;;19.90;99.90;;;;;;5018693;28;20045;-65
2022/01/20 13:54:40;;;;;;;;;;;19.90;99.90;;;;;;5026900;28;20025;-64
2022/01/20 13:57:07;;;;;;;22.27;4.00;;;19.90;99.90;;;;;;5018775;28;19921;-64
2022/01/20 13:59:35;;;;;;;22.50;4.38;;;19.90;99.90;;;;;;5025055;28;20087;-65